Decoded Metar for KDHN (DOTHAN in AL, USA) (IATA:DHN) | Meteo·Mobile Aviation Weather
aviador You're here:

KDHN Decoded Metar

DOTHAN in AL, USA
Report Time2019-01-17 21:53:00
UTC Time2019-01-17 22:55:15
Flight Rules vfr VFR
Wind260° at 05 kt
W.Decomp.*RWY 32: 2.7 kt HW 4.2 kt LCW
RWY 18: 0.6 kt HW 5.0 kt RCW
W.Rank260° ranks 28
Current wind is below 260° avg. (6.6)
Visibility9999 m
Phenomena:N/A
Clouds:Broken 050 Hf
Overcast 070 Hf
Expected CloudBase > 4,800 ft AGL from Temp-Dew spread
Ceiling5,000 ft
Temp17°C (ISA +3)
Dew Point05°C (45% RH)
AAT14.1°C
QNH1022 hPa
Density Alt512 ft
Elevation371 ft
Report Wrong Elevation
Raw Report
KDHN 172153Z 26005KT 10SM BKN050 OVC070 17/05 A3019 RMK AO2 SLP222
T01720050=

Extra information for KDHN:More info

Metar Taf Metar & Taf Last 4 Metars F.Rules Stats Wind Profile Meteogram Temp Stats Airport Information Weather charts Add Link Nearby VenuesMetar ALERT Operation Metar Decoded Social comments

AIRNAV info for KDHN